sensor_id;sensor_type;location;lat;lon;timestamp;P1;durP1;ratioP1;P2;durP2;ratioP2
74375;SDS011;62812;55.188;61.302;2023-09-08T00:02:14;12.25;;;5.43;;
74375;SDS011;62812;55.188;61.302;2023-09-08T00:04:42;12.63;;;5.35;;
74375;SDS011;62812;55.188;61.302;2023-09-08T00:07:08;11.40;;;5.07;;
74375;SDS011;62812;55.188;61.302;2023-09-08T00:09:35;10.32;;;5.00;;
74375;SDS011;62812;55.188;61.302;2023-09-08T00:12:01;11.25;;;5.10;;
74375;SDS011;62812;55.188;61.302;2023-09-08T00:14:28;10.60;;;5.20;;
74375;SDS011;62812;55.188;61.302;2023-09-08T00:16:54;10.45;;;5.22;;
74375;SDS011;62812;55.188;61.302;2023-09-08T00:19:22;11.82;;;5.07;;
74375;SDS011;62812;55.188;61.302;2023-09-08T00:21:52;9.13;;;5.05;;
74375;SDS011;62812;55.188;61.302;2023-09-08T00:24:18;8.75;;;4.82;;
74375;SDS011;62812;55.188;61.302;2023-09-08T00:26:45;9.00;;;4.93;;
74375;SDS011;62812;55.188;61.302;2023-09-08T00:29:12;11.05;;;5.00;;
74375;SDS011;62812;55.188;61.302;2023-09-08T00:31:38;9.57;;;5.28;;
74375;SDS011;62812;55.188;61.302;2023-09-08T00:34:05;12.73;;;5.40;;
74375;SDS011;62812;55.188;61.302;2023-09-08T00:36:34;11.00;;;5.05;;
74375;SDS011;62812;55.188;61.302;2023-09-08T00:39:01;14.20;;;5.30;;
74375;SDS011;62812;55.188;61.302;2023-09-08T00:41:27;14.38;;;5.13;;
74375;SDS011;62812;55.188;61.302;2023-09-08T00:43:54;13.55;;;5.05;;
74375;SDS011;62812;55.188;61.302;2023-09-08T00:46:21;11.68;;;5.03;;
74375;SDS011;62812;55.188;61.302;2023-09-08T00:48:47;10.05;;;4.97;;
74375;SDS011;62812;55.188;61.302;2023-09-08T00:51:14;9.68;;;4.85;;
74375;SDS011;62812;55.188;61.302;2023-09-08T00:53:42;14.82;;;5.65;;
74375;SDS011;62812;55.188;61.302;2023-09-08T00:56:09;18.40;;;5.70;;
74375;SDS011;62812;55.188;61.302;2023-09-08T00:58:36;10.15;;;4.60;;
74375;SDS011;62812;55.188;61.302;2023-09-08T01:01:03;15.15;;;5.07;;
74375;SDS011;62812;55.188;61.302;2023-09-08T01:03:31;11.50;;;5.15;;
74375;SDS011;62812;55.188;61.302;2023-09-08T01:05:58;10.63;;;4.93;;
74375;SDS011;62812;55.188;61.302;2023-09-08T01:08:25;15.00;;;5.55;;
74375;SDS011;62812;55.188;61.302;2023-09-08T01:10:54;11.07;;;5.10;;
74375;SDS011;62812;55.188;61.302;2023-09-08T01:13:21;14.15;;;5.00;;
74375;SDS011;62812;55.188;61.302;2023-09-08T01:15:48;13.50;;;5.07;;
74375;SDS011;62812;55.188;61.302;2023-09-08T01:18:15;10.13;;;5.20;;
74375;SDS011;62812;55.188;61.302;2023-09-08T01:20:55;12.45;;;4.80;;
74375;SDS011;62812;55.188;61.302;2023-09-08T01:26:12;12.25;;;5.20;;
74375;SDS011;62812;55.188;61.302;2023-09-08T01:28:44;9.90;;;5.57;;
74375;SDS011;62812;55.188;61.302;2023-09-08T01:31:12;12.32;;;5.30;;
74375;SDS011;62812;55.188;61.302;2023-09-08T01:33:39;14.30;;;5.65;;
74375;SDS011;62812;55.188;61.302;2023-09-08T01:36:07;11.00;;;4.80;;
74375;SDS011;62812;55.188;61.302;2023-09-08T01:38:35;9.52;;;5.05;;
74375;SDS011;62812;55.188;61.302;2023-09-08T01:41:04;11.27;;;5.45;;
74375;SDS011;62812;55.188;61.302;2023-09-08T01:43:32;11.00;;;5.10;;
74375;SDS011;62812;55.188;61.302;2023-09-08T01:45:59;12.18;;;5.05;;
74375;SDS011;62812;55.188;61.302;2023-09-08T01:48:28;17.60;;;6.05;;
74375;SDS011;62812;55.188;61.302;2023-09-08T01:50:55;15.02;;;4.95;;
74375;SDS011;62812;55.188;61.302;2023-09-08T01:53:22;13.55;;;4.78;;
74375;SDS011;62812;55.188;61.302;2023-09-08T01:55:49;14.75;;;4.90;;
74375;SDS011;62812;55.188;61.302;2023-09-08T01:58:18;13.73;;;5.07;;
74375;SDS011;62812;55.188;61.302;2023-09-08T02:00:49;8.40;;;4.78;;
74375;SDS011;62812;55.188;61.302;2023-09-08T02:03:19;12.60;;;5.80;;
74375;SDS011;62812;55.188;61.302;2023-09-08T02:05:46;10.35;;;5.50;;
74375;SDS011;62812;55.188;61.302;2023-09-08T02:08:13;9.95;;;5.38;;
74375;SDS011;62812;55.188;61.302;2023-09-08T02:10:40;10.52;;;4.80;;
74375;SDS011;62812;55.188;61.302;2023-09-08T02:13:07;11.90;;;5.20;;
74375;SDS011;62812;55.188;61.302;2023-09-08T02:15:34;16.73;;;5.47;;
74375;SDS011;62812;55.188;61.302;2023-09-08T02:18:04;8.73;;;4.68;;
74375;SDS011;62812;55.188;61.302;2023-09-08T02:20:32;8.10;;;4.50;;
74375;SDS011;62812;55.188;61.302;2023-09-08T02:23:03;10.23;;;4.65;;
74375;SDS011;62812;55.188;61.302;2023-09-08T02:25:31;13.02;;;5.43;;
74375;SDS011;62812;55.188;61.302;2023-09-08T02:27:58;11.90;;;5.20;;
74375;SDS011;62812;55.188;61.302;2023-09-08T02:30:25;9.68;;;4.95;;
74375;SDS011;62812;55.188;61.302;2023-09-08T02:32:52;10.88;;;4.65;;
74375;SDS011;62812;55.188;61.302;2023-09-08T02:35:22;13.68;;;5.57;;
74375;SDS011;62812;55.188;61.302;2023-09-08T02:37:51;10.77;;;5.00;;
74375;SDS011;62812;55.188;61.302;2023-09-08T02:40:18;11.43;;;5.45;;
74375;SDS011;62812;55.188;61.302;2023-09-08T02:42:46;17.45;;;5.28;;
74375;SDS011;62812;55.188;61.302;2023-09-08T02:45:12;14.18;;;5.53;;
74375;SDS011;62812;55.188;61.302;2023-09-08T02:47:39;11.27;;;5.05;;
74375;SDS011;62812;55.188;61.302;2023-09-08T02:50:06;16.50;;;5.15;;
74375;SDS011;62812;55.188;61.302;2023-09-08T02:52:34;16.77;;;5.32;;
74375;SDS011;62812;55.188;61.302;2023-09-08T02:55:01;11.23;;;4.78;;
74375;SDS011;62812;55.188;61.302;2023-09-08T02:57:30;14.20;;;6.03;;
74375;SDS011;62812;55.188;61.302;2023-09-08T02:59:57;14.55;;;5.40;;
74375;SDS011;62812;55.188;61.302;2023-09-08T03:02:24;12.25;;;5.35;;
74375;SDS011;62812;55.188;61.302;2023-09-08T03:04:51;13.35;;;6.07;;
74375;SDS011;62812;55.188;61.302;2023-09-08T03:07:18;14.63;;;5.88;;
74375;SDS011;62812;55.188;61.302;2023-09-08T03:09:46;14.40;;;5.07;;
74375;SDS011;62812;55.188;61.302;2023-09-08T03:12:12;14.15;;;5.38;;
74375;SDS011;62812;55.188;61.302;2023-09-08T03:14:39;11.02;;;5.60;;
74375;SDS011;62812;55.188;61.302;2023-09-08T03:17:05;12.93;;;4.82;;
74375;SDS011;62812;55.188;61.302;2023-09-08T03:19:32;12.55;;;5.32;;
74375;SDS011;62812;55.188;61.302;2023-09-08T03:21:58;11.50;;;5.22;;
74375;SDS011;62812;55.188;61.302;2023-09-08T03:24:25;13.70;;;5.35;;
74375;SDS011;62812;55.188;61.302;2023-09-08T03:26:54;9.55;;;5.72;;
74375;SDS011;62812;55.188;61.302;2023-09-08T03:29:21;11.60;;;6.00;;
74375;SDS011;62812;55.188;61.302;2023-09-08T03:31:48;13.73;;;6.40;;
74375;SDS011;62812;55.188;61.302;2023-09-08T03:34:15;13.02;;;5.30;;
74375;SDS011;62812;55.188;61.302;2023-09-08T03:36:43;13.75;;;5.60;;
74375;SDS011;62812;55.188;61.302;2023-09-08T03:39:10;12.43;;;5.40;;
74375;SDS011;62812;55.188;61.302;2023-09-08T03:41:36;15.27;;;5.78;;
74375;SDS011;62812;55.188;61.302;2023-09-08T03:44:06;13.05;;;5.90;;
74375;SDS011;62812;55.188;61.302;2023-09-08T03:46:32;19.38;;;5.65;;
74375;SDS011;62812;55.188;61.302;2023-09-08T03:48:59;15.32;;;5.43;;
74375;SDS011;62812;55.188;61.302;2023-09-08T03:51:26;12.50;;;5.50;;
74375;SDS011;62812;55.188;61.302;2023-09-08T03:53:54;13.77;;;5.03;;
74375;SDS011;62812;55.188;61.302;2023-09-08T03:56:20;13.38;;;5.13;;
74375;SDS011;62812;55.188;61.302;2023-09-08T03:58:47;13.02;;;4.88;;
74375;SDS011;62812;55.188;61.302;2023-09-08T04:01:15;10.10;;;4.60;;
74375;SDS011;62812;55.188;61.302;2023-09-08T04:03:41;11.40;;;4.75;;
74375;SDS011;62812;55.188;61.302;2023-09-08T04:06:09;10.80;;;4.90;;
74375;SDS011;62812;55.188;61.302;2023-09-08T04:08:36;12.40;;;5.15;;
74375;SDS011;62812;55.188;61.302;2023-09-08T04:11:02;13.63;;;5.00;;
74375;SDS011;62812;55.188;61.302;2023-09-08T04:13:29;18.85;;;4.88;;
74375;SDS011;62812;55.188;61.302;2023-09-08T04:15:55;12.18;;;4.78;;
74375;SDS011;62812;55.188;61.302;2023-09-08T04:18:24;10.23;;;4.78;;
74375;SDS011;62812;55.188;61.302;2023-09-08T04:20:51;9.10;;;4.85;;
74375;SDS011;62812;55.188;61.302;2023-09-08T04:23:17;10.93;;;4.28;;
74375;SDS011;62812;55.188;61.302;2023-09-08T04:25:44;9.35;;;4.38;;
74375;SDS011;62812;55.188;61.302;2023-09-08T04:28:11;12.10;;;4.38;;
74375;SDS011;62812;55.188;61.302;2023-09-08T04:30:38;10.75;;;4.05;;
74375;SDS011;62812;55.188;61.302;2023-09-08T04:33:05;11.05;;;4.82;;
74375;SDS011;62812;55.188;61.302;2023-09-08T04:35:33;8.70;;;4.28;;
74375;SDS011;62812;55.188;61.302;2023-09-08T04:38:00;10.00;;;4.18;;
74375;SDS011;62812;55.188;61.302;2023-09-08T04:40:26;11.02;;;5.18;;
74375;SDS011;62812;55.188;61.302;2023-09-08T04:42:53;13.10;;;5.70;;
74375;SDS011;62812;55.188;61.302;2023-09-08T04:45:19;13.90;;;6.32;;
74375;SDS011;62812;55.188;61.302;2023-09-08T04:47:47;13.32;;;5.13;;
74375;SDS011;62812;55.188;61.302;2023-09-08T04:50:13;9.95;;;4.85;;
74375;SDS011;62812;55.188;61.302;2023-09-08T04:52:42;9.05;;;4.57;;
74375;SDS011;62812;55.188;61.302;2023-09-08T04:55:09;9.23;;;4.20;;
74375;SDS011;62812;55.188;61.302;2023-09-08T04:57:35;9.30;;;3.60;;
74375;SDS011;62812;55.188;61.302;2023-09-08T05:00:02;8.57;;;3.70;;
74375;SDS011;62812;55.188;61.302;2023-09-08T05:02:31;11.15;;;4.35;;
74375;SDS011;62812;55.188;61.302;2023-09-08T05:04:57;11.48;;;4.60;;
74375;SDS011;62812;55.188;61.302;2023-09-08T05:07:25;7.43;;;3.78;;
74375;SDS011;62812;55.188;61.302;2023-09-08T05:09:53;9.90;;;4.13;;
74375;SDS011;62812;55.188;61.302;2023-09-08T05:12:20;11.65;;;4.28;;
74375;SDS011;62812;55.188;61.302;2023-09-08T05:14:46;15.65;;;4.32;;
74375;SDS011;62812;55.188;61.302;2023-09-08T05:17:13;7.88;;;3.65;;
74375;SDS011;62812;55.188;61.302;2023-09-08T05:19:40;11.50;;;4.53;;
74375;SDS011;62812;55.188;61.302;2023-09-08T05:22:06;13.30;;;4.65;;
74375;SDS011;62812;55.188;61.302;2023-09-08T05:24:33;8.70;;;4.07;;
74375;SDS011;62812;55.188;61.302;2023-09-08T05:27:01;13.70;;;4.32;;
74375;SDS011;62812;55.188;61.302;2023-09-08T05:29:27;13.98;;;4.00;;
74375;SDS011;62812;55.188;61.302;2023-09-08T05:31:54;9.40;;;4.57;;
74375;SDS011;62812;55.188;61.302;2023-09-08T05:34:20;13.80;;;5.93;;
74375;SDS011;62812;55.188;61.302;2023-09-08T05:36:47;9.60;;;4.43;;
74375;SDS011;62812;55.188;61.302;2023-09-08T05:39:14;11.43;;;4.82;;
74375;SDS011;62812;55.188;61.302;2023-09-08T05:41:41;14.15;;;5.80;;
74375;SDS011;62812;55.188;61.302;2023-09-08T05:44:13;7.75;;;4.22;;
74375;SDS011;62812;55.188;61.302;2023-09-08T05:46:39;11.85;;;5.30;;
74375;SDS011;62812;55.188;61.302;2023-09-08T05:49:06;9.38;;;4.85;;
74375;SDS011;62812;55.188;61.302;2023-09-08T05:51:33;13.43;;;6.78;;
74375;SDS011;62812;55.188;61.302;2023-09-08T05:53:59;9.07;;;4.72;;
74375;SDS011;62812;55.188;61.302;2023-09-08T05:56:29;8.50;;;4.28;;
74375;SDS011;62812;55.188;61.302;2023-09-08T05:58:56;10.63;;;4.55;;
74375;SDS011;62812;55.188;61.302;2023-09-08T06:01:29;10.50;;;4.05;;
74375;SDS011;62812;55.188;61.302;2023-09-08T06:03:56;11.90;;;3.90;;
74375;SDS011;62812;55.188;61.302;2023-09-08T06:06:23;18.52;;;5.28;;
74375;SDS011;62812;55.188;61.302;2023-09-08T06:08:50;8.95;;;3.28;;
74375;SDS011;62812;55.188;61.302;2023-09-08T06:11:17;10.55;;;3.50;;
74375;SDS011;62812;55.188;61.302;2023-09-08T06:13:43;11.55;;;3.67;;
74375;SDS011;62812;55.188;61.302;2023-09-08T06:16:10;7.93;;;3.40;;
74375;SDS011;62812;55.188;61.302;2023-09-08T06:18:38;7.53;;;3.83;;
74375;SDS011;62812;55.188;61.302;2023-09-08T06:21:09;8.93;;;3.40;;
74375;SDS011;62812;55.188;61.302;2023-09-08T06:23:36;11.30;;;3.80;;
74375;SDS011;62812;55.188;61.302;2023-09-08T06:26:02;10.15;;;4.40;;
74375;SDS011;62812;55.188;61.302;2023-09-08T06:28:29;11.30;;;5.35;;
74375;SDS011;62812;55.188;61.302;2023-09-08T06:30:57;14.35;;;6.38;;
74375;SDS011;62812;55.188;61.302;2023-09-08T06:33:23;9.85;;;4.45;;
74375;SDS011;62812;55.188;61.302;2023-09-08T06:35:52;7.93;;;3.25;;
74375;SDS011;62812;55.188;61.302;2023-09-08T06:40:49;7.40;;;3.30;;
74375;SDS011;62812;55.188;61.302;2023-09-08T06:45:46;7.88;;;3.28;;
74375;SDS011;62812;55.188;61.302;2023-09-08T06:48:14;9.48;;;4.00;;
74375;SDS011;62812;55.188;61.302;2023-09-08T06:50:41;7.50;;;3.15;;
74375;SDS011;62812;55.188;61.302;2023-09-08T06:53:09;9.38;;;4.00;;
74375;SDS011;62812;55.188;61.302;2023-09-08T06:55:38;8.00;;;4.10;;
74375;SDS011;62812;55.188;61.302;2023-09-08T06:58:04;6.90;;;3.03;;
74375;SDS011;62812;55.188;61.302;2023-09-08T07:00:31;7.38;;;3.00;;
74375;SDS011;62812;55.188;61.302;2023-09-08T07:02:58;11.65;;;2.92;;
74375;SDS011;62812;55.188;61.302;2023-09-08T07:05:27;10.00;;;3.45;;
74375;SDS011;62812;55.188;61.302;2023-09-08T07:07:53;8.63;;;3.97;;
74375;SDS011;62812;55.188;61.302;2023-09-08T07:10:24;10.13;;;3.20;;
74375;SDS011;62812;55.188;61.302;2023-09-08T07:12:51;9.00;;;3.42;;
74375;SDS011;62812;55.188;61.302;2023-09-08T07:15:17;9.30;;;3.60;;
74375;SDS011;62812;55.188;61.302;2023-09-08T07:17:45;8.43;;;3.70;;
74375;SDS011;62812;55.188;61.302;2023-09-08T07:20:12;10.38;;;4.40;;
74375;SDS011;62812;55.188;61.302;2023-09-08T07:22:39;18.58;;;3.92;;
74375;SDS011;62812;55.188;61.302;2023-09-08T07:25:07;6.60;;;2.83;;
74375;SDS011;62812;55.188;61.302;2023-09-08T07:27:39;7.40;;;3.05;;
74375;SDS011;62812;55.188;61.302;2023-09-08T07:30:06;7.40;;;3.38;;
74375;SDS011;62812;55.188;61.302;2023-09-08T07:32:33;7.60;;;3.72;;
74375;SDS011;62812;55.188;61.302;2023-09-08T07:34:59;7.25;;;3.50;;
74375;SDS011;62812;55.188;61.302;2023-09-08T07:37:26;10.70;;;4.25;;
74375;SDS011;62812;55.188;61.302;2023-09-08T07:39:53;10.23;;;4.93;;
74375;SDS011;62812;55.188;61.302;2023-09-08T07:42:20;12.63;;;4.10;;
74375;SDS011;62812;55.188;61.302;2023-09-08T07:44:48;9.32;;;4.82;;
74375;SDS011;62812;55.188;61.302;2023-09-08T07:47:15;11.32;;;4.45;;
74375;SDS011;62812;55.188;61.302;2023-09-08T07:49:44;12.10;;;4.68;;
74375;SDS011;62812;55.188;61.302;2023-09-08T07:52:14;10.48;;;4.65;;
74375;SDS011;62812;55.188;61.302;2023-09-08T07:54:41;7.22;;;3.65;;
74375;SDS011;62812;55.188;61.302;2023-09-08T07:57:08;12.88;;;5.20;;
74375;SDS011;62812;55.188;61.302;2023-09-08T07:59:35;9.32;;;3.60;;
74375;SDS011;62812;55.188;61.302;2023-09-08T08:02:05;9.85;;;3.35;;
74375;SDS011;62812;55.188;61.302;2023-09-08T08:04:32;6.35;;;3.25;;
74375;SDS011;62812;55.188;61.302;2023-09-08T08:06:58;8.35;;;3.92;;
74375;SDS011;62812;55.188;61.302;2023-09-08T08:09:27;7.85;;;3.90;;
74375;SDS011;62812;55.188;61.302;2023-09-08T08:11:54;9.35;;;4.75;;
74375;SDS011;62812;55.188;61.302;2023-09-08T08:14:20;8.13;;;3.30;;
74375;SDS011;62812;55.188;61.302;2023-09-08T08:16:47;6.35;;;3.20;;
74375;SDS011;62812;55.188;61.302;2023-09-08T08:19:16;9.82;;;4.15;;
74375;SDS011;62812;55.188;61.302;2023-09-08T08:21:42;8.32;;;3.83;;
74375;SDS011;62812;55.188;61.302;2023-09-08T08:24:09;9.70;;;3.50;;
74375;SDS011;62812;55.188;61.302;2023-09-08T08:26:36;9.05;;;3.65;;
74375;SDS011;62812;55.188;61.302;2023-09-08T08:29:02;16.08;;;3.78;;
74375;SDS011;62812;55.188;61.302;2023-09-08T08:31:29;8.90;;;3.20;;
74375;SDS011;62812;55.188;61.302;2023-09-08T08:33:55;6.97;;;2.67;;
74375;SDS011;62812;55.188;61.302;2023-09-08T08:36:25;5.35;;;2.70;;
74375;SDS011;62812;55.188;61.302;2023-09-08T08:38:51;6.28;;;2.58;;
74375;SDS011;62812;55.188;61.302;2023-09-08T08:41:18;6.53;;;2.40;;
74375;SDS011;62812;55.188;61.302;2023-09-08T08:43:44;8.30;;;2.80;;
74375;SDS011;62812;55.188;61.302;2023-09-08T08:46:13;9.82;;;3.50;;
74375;SDS011;62812;55.188;61.302;2023-09-08T08:48:42;6.50;;;2.50;;
74375;SDS011;62812;55.188;61.302;2023-09-08T08:51:10;4.50;;;2.15;;
74375;SDS011;62812;55.188;61.302;2023-09-08T08:53:39;5.65;;;2.42;;
74375;SDS011;62812;55.188;61.302;2023-09-08T08:56:06;7.63;;;3.30;;
74375;SDS011;62812;55.188;61.302;2023-09-08T08:58:35;6.72;;;2.88;;
74375;SDS011;62812;55.188;61.302;2023-09-08T09:01:03;5.60;;;2.80;;
74375;SDS011;62812;55.188;61.302;2023-09-08T09:03:30;13.75;;;3.97;;
74375;SDS011;62812;55.188;61.302;2023-09-08T09:06:00;12.02;;;4.03;;
74375;SDS011;62812;55.188;61.302;2023-09-08T09:08:27;6.70;;;3.30;;
74375;SDS011;62812;55.188;61.302;2023-09-08T09:10:57;10.07;;;3.38;;
74375;SDS011;62812;55.188;61.302;2023-09-08T09:13:23;9.18;;;3.80;;
74375;SDS011;62812;55.188;61.302;2023-09-08T09:15:50;7.75;;;3.30;;
74375;SDS011;62812;55.188;61.302;2023-09-08T09:18:17;9.38;;;3.40;;
74375;SDS011;62812;55.188;61.302;2023-09-08T09:20:55;9.05;;;3.28;;
74375;SDS011;62812;55.188;61.302;2023-09-08T09:23:27;7.65;;;3.70;;
74375;SDS011;62812;55.188;61.302;2023-09-08T09:25:54;8.57;;;3.20;;
74375;SDS011;62812;55.188;61.302;2023-09-08T09:28:23;6.22;;;3.10;;
74375;SDS011;62812;55.188;61.302;2023-09-08T09:30:50;7.25;;;2.95;;
74375;SDS011;62812;55.188;61.302;2023-09-08T09:33:18;7.32;;;2.63;;
74375;SDS011;62812;55.188;61.302;2023-09-08T09:35:46;9.55;;;3.72;;
74375;SDS011;62812;55.188;61.302;2023-09-08T09:38:16;8.23;;;4.05;;
74375;SDS011;62812;55.188;61.302;2023-09-08T09:40:44;7.28;;;3.35;;
74375;SDS011;62812;55.188;61.302;2023-09-08T09:43:13;8.73;;;4.18;;
74375;SDS011;62812;55.188;61.302;2023-09-08T09:45:42;7.25;;;3.20;;
74375;SDS011;62812;55.188;61.302;2023-09-08T09:48:09;7.07;;;3.00;;
74375;SDS011;62812;55.188;61.302;2023-09-08T09:50:37;5.55;;;2.80;;
74375;SDS011;62812;55.188;61.302;2023-09-08T09:53:07;7.47;;;2.80;;
74375;SDS011;62812;55.188;61.302;2023-09-08T09:55:36;8.05;;;3.00;;
74375;SDS011;62812;55.188;61.302;2023-09-08T09:58:08;6.57;;;2.55;;
74375;SDS011;62812;55.188;61.302;2023-09-08T10:00:47;9.15;;;3.10;;
74375;SDS011;62812;55.188;61.302;2023-09-08T10:03:15;6.88;;;3.42;;
74375;SDS011;62812;55.188;61.302;2023-09-08T10:05:42;7.85;;;4.00;;
74375;SDS011;62812;55.188;61.302;2023-09-08T10:08:09;8.82;;;4.47;;
74375;SDS011;62812;55.188;61.302;2023-09-08T10:10:36;9.35;;;3.80;;
74375;SDS011;62812;55.188;61.302;2023-09-08T10:13:05;12.02;;;5.13;;
74375;SDS011;62812;55.188;61.302;2023-09-08T10:15:33;13.95;;;5.78;;
74375;SDS011;62812;55.188;61.302;2023-09-08T10:18:15;11.68;;;5.43;;
74375;SDS011;62812;55.188;61.302;2023-09-08T10:20:45;10.50;;;4.43;;
74375;SDS011;62812;55.188;61.302;2023-09-08T10:26:11;10.65;;;4.10;;
74375;SDS011;62812;55.188;61.302;2023-09-08T10:28:42;10.70;;;4.53;;
74375;SDS011;62812;55.188;61.302;2023-09-08T10:31:21;10.00;;;5.25;;
74375;SDS011;62812;55.188;61.302;2023-09-08T10:33:50;11.02;;;4.78;;
74375;SDS011;62812;55.188;61.302;2023-09-08T10:36:26;10.40;;;4.80;;
74375;SDS011;62812;55.188;61.302;2023-09-08T10:38:53;9.52;;;4.05;;
74375;SDS011;62812;55.188;61.302;2023-09-08T10:41:31;9.75;;;4.40;;
74375;SDS011;62812;55.188;61.302;2023-09-08T10:44:01;10.75;;;3.80;;
74375;SDS011;62812;55.188;61.302;2023-09-08T10:46:37;7.88;;;3.90;;
74375;SDS011;62812;55.188;61.302;2023-09-08T10:49:05;7.55;;;3.17;;
74375;SDS011;62812;55.188;61.302;2023-09-08T10:51:32;7.70;;;3.53;;
74375;SDS011;62812;55.188;61.302;2023-09-08T10:54:00;8.73;;;3.72;;
74375;SDS011;62812;55.188;61.302;2023-09-08T10:56:27;10.90;;;4.72;;
74375;SDS011;62812;55.188;61.302;2023-09-08T10:58:58;8.27;;;4.40;;
74375;SDS011;62812;55.188;61.302;2023-09-08T11:01:27;11.05;;;4.72;;
74375;SDS011;62812;55.188;61.302;2023-09-08T11:04:05;7.90;;;4.22;;
74375;SDS011;62812;55.188;61.302;2023-09-08T11:06:35;7.90;;;3.85;;
74375;SDS011;62812;55.188;61.302;2023-09-08T11:09:05;8.15;;;3.67;;
74375;SDS011;62812;55.188;61.302;2023-09-08T11:11:33;8.30;;;3.70;;
74375;SDS011;62812;55.188;61.302;2023-09-08T11:13:59;7.85;;;4.05;;
74375;SDS011;62812;55.188;61.302;2023-09-08T11:16:26;7.28;;;4.03;;
74375;SDS011;62812;55.188;61.302;2023-09-08T11:18:57;7.68;;;3.90;;
74375;SDS011;62812;55.188;61.302;2023-09-08T11:21:25;6.40;;;3.63;;
74375;SDS011;62812;55.188;61.302;2023-09-08T11:23:57;7.40;;;3.85;;
74375;SDS011;62812;55.188;61.302;2023-09-08T11:26:26;9.60;;;4.03;;
74375;SDS011;62812;55.188;61.302;2023-09-08T11:28:53;6.82;;;3.47;;
74375;SDS011;62812;55.188;61.302;2023-09-08T11:31:20;8.27;;;3.80;;
74375;SDS011;62812;55.188;61.302;2023-09-08T11:33:48;7.63;;;3.80;;
74375;SDS011;62812;55.188;61.302;2023-09-08T11:36:15;7.07;;;3.90;;
74375;SDS011;62812;55.188;61.302;2023-09-08T11:38:44;6.88;;;3.40;;
74375;SDS011;62812;55.188;61.302;2023-09-08T11:41:13;7.45;;;3.90;;
74375;SDS011;62812;55.188;61.302;2023-09-08T11:43:40;7.43;;;3.80;;
74375;SDS011;62812;55.188;61.302;2023-09-08T11:46:10;8.20;;;3.97;;
74375;SDS011;62812;55.188;61.302;2023-09-08T11:48:37;7.18;;;3.80;;
74375;SDS011;62812;55.188;61.302;2023-09-08T11:51:06;7.93;;;3.70;;
74375;SDS011;62812;55.188;61.302;2023-09-08T11:53:34;6.85;;;3.60;;
74375;SDS011;62812;55.188;61.302;2023-09-08T11:56:04;6.80;;;3.67;;
74375;SDS011;62812;55.188;61.302;2023-09-08T11:58:31;7.55;;;3.80;;
74375;SDS011;62812;55.188;61.302;2023-09-08T12:00:59;7.10;;;3.63;;
74375;SDS011;62812;55.188;61.302;2023-09-08T12:03:26;7.18;;;3.38;;
74375;SDS011;62812;55.188;61.302;2023-09-08T12:05:52;6.82;;;3.13;;
74375;SDS011;62812;55.188;61.302;2023-09-08T12:08:19;6.72;;;3.47;;
74375;SDS011;62812;55.188;61.302;2023-09-08T12:10:45;11.38;;;4.18;;
74375;SDS011;62812;55.188;61.302;2023-09-08T12:13:19;7.68;;;4.13;;
74375;SDS011;62812;55.188;61.302;2023-09-08T12:15:46;5.80;;;2.63;;
74375;SDS011;62812;55.188;61.302;2023-09-08T12:18:13;5.72;;;2.92;;
74375;SDS011;62812;55.188;61.302;2023-09-08T12:21:02;7.93;;;3.42;;
74375;SDS011;62812;55.188;61.302;2023-09-08T12:23:30;7.43;;;3.28;;
74375;SDS011;62812;55.188;61.302;2023-09-08T12:25:57;8.63;;;3.85;;
74375;SDS011;62812;55.188;61.302;2023-09-08T12:28:25;8.35;;;4.53;;
74375;SDS011;62812;55.188;61.302;2023-09-08T12:30:56;13.15;;;5.82;;
74375;SDS011;62812;55.188;61.302;2023-09-08T12:33:23;11.30;;;4.90;;
74375;SDS011;62812;55.188;61.302;2023-09-08T12:35:52;10.85;;;4.47;;
74375;SDS011;62812;55.188;61.302;2023-09-08T12:38:19;8.73;;;5.30;;
74375;SDS011;62812;55.188;61.302;2023-09-08T12:40:46;10.30;;;5.72;;
74375;SDS011;62812;55.188;61.302;2023-09-08T12:43:13;12.95;;;5.53;;
74375;SDS011;62812;55.188;61.302;2023-09-08T12:45:57;19.20;;;8.43;;
74375;SDS011;62812;55.188;61.302;2023-09-08T12:48:23;18.20;;;7.88;;
74375;SDS011;62812;55.188;61.302;2023-09-08T12:50:50;16.75;;;7.28;;
74375;SDS011;62812;55.188;61.302;2023-09-08T12:53:17;13.82;;;5.95;;
74375;SDS011;62812;55.188;61.302;2023-09-08T12:55:43;14.45;;;6.90;;
74375;SDS011;62812;55.188;61.302;2023-09-08T12:58:11;12.40;;;5.25;;
74375;SDS011;62812;55.188;61.302;2023-09-08T13:00:37;10.05;;;5.28;;
74375;SDS011;62812;55.188;61.302;2023-09-08T13:03:06;10.75;;;5.13;;
74375;SDS011;62812;55.188;61.302;2023-09-08T13:05:33;8.18;;;4.43;;
74375;SDS011;62812;55.188;61.302;2023-09-08T13:08:00;11.88;;;5.93;;
74375;SDS011;62812;55.188;61.302;2023-09-08T13:10:26;12.15;;;7.28;;
74375;SDS011;62812;55.188;61.302;2023-09-08T13:12:53;14.40;;;7.43;;
74375;SDS011;62812;55.188;61.302;2023-09-08T13:15:20;13.25;;;6.82;;
74375;SDS011;62812;55.188;61.302;2023-09-08T13:17:47;12.88;;;6.43;;
74375;SDS011;62812;55.188;61.302;2023-09-08T13:20:15;11.98;;;6.57;;
74375;SDS011;62812;55.188;61.302;2023-09-08T13:22:41;9.65;;;4.72;;
74375;SDS011;62812;55.188;61.302;2023-09-08T13:25:08;10.32;;;5.07;;
74375;SDS011;62812;55.188;61.302;2023-09-08T13:27:35;11.98;;;4.85;;
74375;SDS011;62812;55.188;61.302;2023-09-08T13:30:07;12.77;;;5.10;;
74375;SDS011;62812;55.188;61.302;2023-09-08T13:32:35;11.77;;;6.35;;
74375;SDS011;62812;55.188;61.302;2023-09-08T13:35:02;13.02;;;6.25;;
74375;SDS011;62812;55.188;61.302;2023-09-08T13:43:41;14.25;;;7.53;;
74375;SDS011;62812;55.188;61.302;2023-09-08T13:46:16;14.75;;;6.85;;
74375;SDS011;62812;55.188;61.302;2023-09-08T13:49:20;9.57;;;5.05;;
74375;SDS011;62812;55.188;61.302;2023-09-08T13:54:04;10.68;;;5.93;;
74375;SDS011;62812;55.188;61.302;2023-09-08T13:55:58;10.82;;;6.15;;
74375;SDS011;62812;55.188;61.302;2023-09-08T13:58:31;11.45;;;6.18;;
74375;SDS011;62812;55.188;61.302;2023-09-08T14:01:02;14.10;;;7.38;;
74375;SDS011;62812;55.188;61.302;2023-09-08T14:03:29;14.82;;;7.25;;
74375;SDS011;62812;55.188;61.302;2023-09-08T14:05:56;13.75;;;7.53;;
74375;SDS011;62812;55.188;61.302;2023-09-08T14:08:23;14.70;;;7.03;;
74375;SDS011;62812;55.188;61.302;2023-09-08T14:10:49;16.98;;;8.40;;
74375;SDS011;62812;55.188;61.302;2023-09-08T14:13:18;20.52;;;9.25;;
74375;SDS011;62812;55.188;61.302;2023-09-08T14:15:45;21.58;;;10.23;;
74375;SDS011;62812;55.188;61.302;2023-09-08T14:18:12;19.08;;;10.77;;
74375;SDS011;62812;55.188;61.302;2023-09-08T14:20:40;38.50;;;18.48;;
74375;SDS011;62812;55.188;61.302;2023-09-08T14:23:07;31.65;;;16.52;;
74375;SDS011;62812;55.188;61.302;2023-09-08T14:25:34;42.47;;;18.58;;
74375;SDS011;62812;55.188;61.302;2023-09-08T14:28:00;33.25;;;14.20;;
74375;SDS011;62812;55.188;61.302;2023-09-08T14:30:52;31.77;;;14.25;;
74375;SDS011;62812;55.188;61.302;2023-09-08T14:33:19;44.13;;;18.15;;
74375;SDS011;62812;55.188;61.302;2023-09-08T14:35:45;45.13;;;21.35;;
74375;SDS011;62812;55.188;61.302;2023-09-08T14:38:17;38.38;;;18.05;;
74375;SDS011;62812;55.188;61.302;2023-09-08T14:40:44;32.50;;;16.25;;
74375;SDS011;62812;55.188;61.302;2023-09-08T14:43:20;19.80;;;10.80;;
74375;SDS011;62812;55.188;61.302;2023-09-08T14:45:46;25.63;;;10.05;;
74375;SDS011;62812;55.188;61.302;2023-09-08T14:48:14;18.33;;;9.88;;
74375;SDS011;62812;55.188;61.302;2023-09-08T14:50:42;21.90;;;10.68;;